createdAt,value
2017-01-28T00:01:22.195Z,0
2017-01-28T00:02:44.760Z,0
2017-01-28T00:04:07.621Z,0
2017-01-28T00:05:29.627Z,0
2017-01-28T00:06:50.924Z,0
2017-01-28T00:08:13.389Z,0
2017-01-28T00:09:35.862Z,0
2017-01-28T00:10:57.782Z,0
2017-01-28T00:12:20.288Z,0
2017-01-28T00:13:42.851Z,0
2017-01-28T00:15:05.706Z,0
2017-01-28T00:16:28.553Z,0
2017-01-28T00:17:51.248Z,0
2017-01-28T00:19:13.297Z,0
2017-01-28T00:20:35.372Z,0
2017-01-28T00:21:57.693Z,0
2017-01-28T00:23:20.599Z,0
2017-01-28T00:24:43.253Z,0
2017-01-28T00:26:05.323Z,0
2017-01-28T00:27:28.111Z,0
2017-01-28T00:28:50.562Z,0
2017-01-28T00:30:13.092Z,0
2017-01-28T00:31:35.551Z,0
2017-01-28T00:32:57.873Z,0
2017-01-28T00:34:20.113Z,0
2017-01-28T00:35:42.644Z,0
2017-01-28T00:37:05.133Z,0
2017-01-28T00:38:28.310Z,0
2017-01-28T00:39:49.582Z,0
2017-01-28T00:41:12.456Z,0
2017-01-28T00:42:34.632Z,0
2017-01-28T00:43:57.121Z,0
2017-01-28T00:45:17.977Z,0
2017-01-28T00:46:40.452Z,0
2017-01-28T00:48:02.982Z,0
2017-01-28T00:49:26.113Z,0
2017-01-28T00:50:48.281Z,0
2017-01-28T00:52:10.386Z,0
2017-01-28T00:53:32.044Z,0
2017-01-28T00:54:54.815Z,0
2017-01-28T00:56:16.605Z,0
2017-01-28T00:57:39.160Z,0
2017-01-28T00:59:00.804Z,0
2017-01-28T01:00:22.390Z,0
2017-01-28T01:01:44.451Z,0
2017-01-28T01:03:06.935Z,0
2017-01-28T01:04:29.014Z,0
2017-01-28T01:05:51.774Z,0
2017-01-28T01:07:14.242Z,0
2017-01-28T01:08:36.713Z,0
2017-01-28T01:09:58.768Z,0
2017-01-28T01:11:21.615Z,0
2017-01-28T01:12:43.274Z,0
2017-01-28T01:14:04.932Z,0
2017-01-28T01:15:26.977Z,0
2017-01-28T01:16:49.657Z,0
2017-01-28T01:18:10.551Z,0
2017-01-28T01:19:33.038Z,0
2017-01-28T01:20:55.908Z,0
2017-01-28T01:22:17.873Z,0
2017-01-28T01:23:40.887Z,0
2017-01-28T01:25:03.751Z,0
2017-01-28T01:26:26.209Z,0
2017-01-28T01:27:47.733Z,0
2017-01-28T01:29:09.784Z,0
2017-01-28T01:30:31.852Z,0
2017-01-28T01:31:53.923Z,0
2017-01-28T01:33:16.228Z,0
2017-01-28T01:34:37.893Z,0
2017-01-28T01:35:59.955Z,0
2017-01-28T01:37:22.921Z,0
2017-01-28T01:38:45.684Z,0
2017-01-28T01:40:07.354Z,0
2017-01-28T01:41:29.016Z,0
2017-01-28T01:42:50.683Z,0
2017-01-28T01:44:13.445Z,0
2017-01-28T01:45:35.922Z,0
2017-01-28T01:46:57.653Z,0
2017-01-28T01:48:20.121Z,0
2017-01-28T01:49:42.560Z,0
2017-01-28T01:51:05.541Z,0
2017-01-28T01:52:27.595Z,0
2017-01-28T01:53:49.282Z,0
2017-01-28T01:55:11.989Z,0
2017-01-28T01:56:34.058Z,0
2017-01-28T01:57:55.725Z,0
2017-01-28T01:59:18.212Z,0
2017-01-28T02:00:40.552Z,0
2017-01-28T02:02:02.622Z,0
2017-01-28T02:03:25.083Z,0
2017-01-28T02:04:47.988Z,0
2017-01-28T02:06:10.935Z,0
2017-01-28T02:07:32.607Z,0
2017-01-28T02:08:54.680Z,0
2017-01-28T02:10:17.131Z,0
2017-01-28T02:11:38.711Z,0
2017-01-28T02:12:59.985Z,0
2017-01-28T02:14:22.443Z,0
2017-01-28T02:15:44.109Z,0
2017-01-28T02:17:07.221Z,0
2017-01-28T02:18:29.271Z,0
2017-01-28T02:19:52.142Z,0
2017-01-28T02:21:13.392Z,0
2017-01-28T02:22:36.225Z,0
2017-01-28T02:23:58.405Z,0
2017-01-28T02:25:20.606Z,0
2017-01-28T02:26:43.233Z,0
2017-01-28T02:28:04.815Z,0
2017-01-28T02:29:26.867Z,0
2017-01-28T02:30:48.926Z,0
2017-01-28T02:32:11.409Z,0
2017-01-28T02:33:33.460Z,0
2017-01-28T02:34:55.543Z,0
2017-01-28T02:36:17.997Z,0
2017-01-28T02:37:40.605Z,0
2017-01-28T02:39:03.379Z,0
2017-01-28T02:40:25.460Z,0
2017-01-28T02:41:47.502Z,0
2017-01-28T02:43:09.967Z,0
2017-01-28T02:44:32.661Z,0
2017-01-28T02:45:55.151Z,0
2017-01-28T02:47:17.672Z,0
2017-01-28T02:48:40.141Z,0
2017-01-28T02:50:03.230Z,0
2017-01-28T02:51:25.691Z,0
2017-01-28T02:52:48.153Z,0
2017-01-28T02:54:10.324Z,0
2017-01-28T02:55:33.168Z,0
2017-01-28T02:56:55.622Z,0
2017-01-28T02:58:17.666Z,0
2017-01-28T02:59:38.923Z,0
2017-01-28T03:01:01.673Z,0
2017-01-28T03:02:24.143Z,0
2017-01-28T03:03:46.694Z,0
2017-01-28T03:05:08.343Z,0
2017-01-28T03:06:31.180Z,0
2017-01-28T03:07:53.639Z,0
2017-01-28T03:09:15.312Z,0
2017-01-28T03:10:37.780Z,0
2017-01-28T03:12:00.512Z,0
2017-01-28T03:13:21.811Z,0
2017-01-28T03:14:44.678Z,0
2017-01-28T03:16:06.365Z,0
2017-01-28T03:17:27.481Z,0
2017-01-28T03:18:49.161Z,0
2017-01-28T03:20:10.863Z,0
2017-01-28T03:21:33.320Z,0
2017-01-28T03:22:55.643Z,0
2017-01-28T03:24:18.526Z,0
2017-01-28T03:25:40.733Z,0
2017-01-28T03:27:03.201Z,0
2017-01-28T03:28:25.980Z,0
2017-01-28T03:29:47.246Z,0
2017-01-28T03:31:09.679Z,0
2017-01-28T03:32:32.129Z,0
2017-01-28T03:33:53.310Z,0
2017-01-28T03:35:15.400Z,0
2017-01-28T03:36:37.466Z,0
2017-01-28T03:37:59.660Z,0
2017-01-28T03:39:21.982Z,0
2017-01-28T03:40:44.851Z,0
2017-01-28T03:42:07.331Z,0
2017-01-28T03:43:28.980Z,0
2017-01-28T03:44:51.787Z,0
2017-01-28T03:46:13.457Z,0
2017-01-28T03:47:35.106Z,0
2017-01-28T03:48:57.274Z,0
2017-01-28T03:50:19.625Z,0
2017-01-28T03:51:40.902Z,0
2017-01-28T03:53:02.962Z,0
2017-01-28T03:54:25.112Z,0
2017-01-28T03:55:46.243Z,0
2017-01-28T03:57:07.631Z,0
2017-01-28T03:58:30.104Z,0
2017-01-28T03:59:52.567Z,0
2017-01-28T04:01:14.521Z,0
2017-01-28T04:02:36.982Z,0
2017-01-28T04:03:59.050Z,0
2017-01-28T04:05:21.102Z,0
2017-01-28T04:06:43.795Z,0
2017-01-28T04:08:05.878Z,0
2017-01-28T04:09:27.942Z,0
2017-01-28T04:10:50.818Z,0
2017-01-28T04:12:12.800Z,0
2017-01-28T04:13:35.692Z,0
2017-01-28T04:14:57.753Z,0
2017-01-28T04:16:20.615Z,0
2017-01-28T04:17:43.763Z,0
2017-01-28T04:19:05.122Z,0
2017-01-28T04:20:26.835Z,0
2017-01-28T04:21:49.301Z,0
2017-01-28T04:23:11.703Z,0
2017-01-28T04:24:32.968Z,0
2017-01-28T04:25:54.625Z,0
2017-01-28T04:27:17.137Z,0
2017-01-28T04:28:39.504Z,0
2017-01-28T04:30:01.651Z,0
2017-01-28T04:31:23.699Z,0
2017-01-28T04:32:46.154Z,0
2017-01-28T04:34:08.663Z,0
2017-01-28T04:35:31.234Z,0
2017-01-28T04:36:52.494Z,0
2017-01-28T04:38:14.164Z,0
2017-01-28T04:39:37.003Z,0
2017-01-28T04:40:58.708Z,0
2017-01-28T04:42:20.792Z,0
2017-01-28T04:43:42.440Z,0
2017-01-28T04:45:04.372Z,0
2017-01-28T04:46:26.424Z,0
2017-01-28T04:47:49.009Z,0
2017-01-28T04:49:11.481Z,0
2017-01-28T04:50:34.052Z,0
2017-01-28T04:51:56.568Z,0
2017-01-28T04:53:18.733Z,0
2017-01-28T04:54:41.604Z,0
2017-01-28T04:56:03.571Z,0
2017-01-28T04:57:25.633Z,0
2017-01-28T04:58:47.335Z,0
2017-01-28T05:00:08.990Z,0
2017-01-28T05:01:31.583Z,0
2017-01-28T05:02:54.123Z,0
2017-01-28T05:04:16.307Z,0
2017-01-28T05:05:37.600Z,0
2017-01-28T05:07:00.701Z,0
2017-01-28T05:08:22.740Z,0
2017-01-28T05:09:44.807Z,0
2017-01-28T05:11:05.802Z,0
2017-01-28T05:12:28.513Z,0
2017-01-28T05:13:51.483Z,0
2017-01-28T05:15:14.342Z,0
2017-01-28T05:16:36.529Z,0
2017-01-28T05:17:58.494Z,0
2017-01-28T05:19:20.983Z,0
2017-01-28T05:20:42.686Z,0
2017-01-28T05:22:05.147Z,0
2017-01-28T05:23:27.065Z,0
2017-01-28T05:24:49.184Z,0
2017-01-28T05:26:11.262Z,0
2017-01-28T05:27:33.843Z,0
2017-01-28T05:28:56.181Z,0
2017-01-28T05:30:18.256Z,0
2017-01-28T05:31:41.107Z,0
2017-01-28T05:33:02.971Z,0
2017-01-28T05:34:25.261Z,0
2017-01-28T05:35:48.135Z,0
2017-01-28T05:37:10.997Z,0
2017-01-28T05:38:33.886Z,0
2017-01-28T05:39:56.600Z,0
2017-01-28T05:41:17.904Z,0
2017-01-28T05:42:39.589Z,0
2017-01-28T05:44:02.046Z,0
2017-01-28T05:45:23.613Z,0
2017-01-28T05:46:45.741Z,0
2017-01-28T05:48:08.185Z,0
2017-01-28T05:49:29.849Z,0
2017-01-28T05:50:52.973Z,0
2017-01-28T05:52:14.631Z,0
2017-01-28T05:53:36.681Z,0
2017-01-28T05:54:58.731Z,0
2017-01-28T05:56:21.786Z,0
2017-01-28T05:57:43.835Z,0
2017-01-28T05:59:05.522Z,0
2017-01-28T06:00:26.791Z,0
2017-01-28T06:01:49.169Z,0
2017-01-28T06:03:12.038Z,0
2017-01-28T06:04:34.954Z,0
2017-01-28T06:05:57.013Z,0
2017-01-28T06:07:19.205Z,0
2017-01-28T06:08:40.879Z,0
2017-01-28T06:10:03.190Z,0
2017-01-28T06:11:25.281Z,0
2017-01-28T06:12:47.692Z,0
2017-01-28T06:14:10.163Z,0
2017-01-28T06:15:32.211Z,0
2017-01-28T06:16:53.876Z,0
2017-01-28T06:18:16.624Z,0
2017-01-28T06:19:39.075Z,0
2017-01-28T06:21:01.156Z,0
2017-01-28T06:22:23.745Z,0
2017-01-28T06:23:46.533Z,0
2017-01-28T06:25:08.196Z,0
2017-01-28T06:26:31.063Z,0
2017-01-28T06:27:53.159Z,0
2017-01-28T06:29:15.930Z,0
2017-01-28T06:30:38.383Z,0
2017-01-28T06:32:00.115Z,0
2017-01-28T06:33:22.170Z,0
2017-01-28T06:34:44.479Z,0
2017-01-28T06:36:06.611Z,0
2017-01-28T06:37:28.272Z,0
2017-01-28T06:38:50.716Z,0
2017-01-28T06:40:12.303Z,0
2017-01-28T06:41:34.092Z,0
2017-01-28T06:42:56.624Z,0
2017-01-28T06:44:19.118Z,0
2017-01-28T06:45:41.113Z,0
2017-01-28T06:47:02.390Z,0
2017-01-28T06:48:25.261Z,0
2017-01-28T06:49:47.315Z,0
2017-01-28T06:51:10.030Z,0
2017-01-28T06:52:32.504Z,0
2017-01-28T06:53:55.434Z,0
2017-01-28T06:55:17.890Z,0
2017-01-28T06:56:40.997Z,0
2017-01-28T06:58:02.662Z,0
2017-01-28T06:59:24.340Z,0
2017-01-28T07:00:46.919Z,0
2017-01-28T07:02:08.901Z,0
2017-01-28T07:03:31.497Z,0
2017-01-28T07:04:53.964Z,5
2017-01-28T07:06:16.022Z,5
2017-01-28T07:07:38.300Z,5
2017-01-28T07:08:59.983Z,5
2017-01-28T07:10:22.041Z,5
2017-01-28T07:11:43.303Z,10
2017-01-28T07:13:05.598Z,10
2017-01-28T07:14:27.275Z,10
2017-01-28T07:15:50.128Z,10
2017-01-28T07:17:11.807Z,15
2017-01-28T07:18:34.135Z,15
2017-01-28T07:19:57.003Z,15
2017-01-28T07:21:19.077Z,15
2017-01-28T07:22:41.573Z,15
2017-01-28T07:24:04.324Z,15
2017-01-28T07:25:26.707Z,20
2017-01-28T07:26:48.784Z,20
2017-01-28T07:28:11.753Z,20
2017-01-28T07:29:33.320Z,25
2017-01-28T07:30:55.356Z,25
2017-01-28T07:32:17.033Z,25
2017-01-28T07:33:39.123Z,30
2017-01-28T07:35:01.535Z,30
2017-01-28T07:36:24.400Z,30
2017-01-28T07:37:46.959Z,35
2017-01-28T07:39:09.031Z,35
2017-01-28T07:40:31.342Z,40
2017-01-28T07:41:53.114Z,40
2017-01-28T07:43:14.377Z,40
2017-01-28T07:44:36.937Z,45
2017-01-28T07:45:58.858Z,45
2017-01-28T07:47:21.311Z,45
2017-01-28T07:48:43.366Z,50
2017-01-28T07:50:05.570Z,50
2017-01-28T07:51:28.691Z,55
2017-01-28T07:52:51.264Z,55
2017-01-28T07:54:12.932Z,55
2017-01-28T07:55:35.083Z,60
2017-01-28T07:56:56.985Z,60
2017-01-28T07:58:18.687Z,60
2017-01-28T07:59:40.364Z,65
2017-01-28T08:01:02.028Z,65
2017-01-28T08:02:24.760Z,70
2017-01-28T08:03:46.474Z,70
2017-01-28T08:05:08.929Z,70
2017-01-28T08:06:31.202Z,70
2017-01-28T08:07:54.024Z,75
2017-01-28T08:09:16.092Z,75
2017-01-28T08:10:38.143Z,75
2017-01-28T08:12:00.994Z,75
2017-01-28T08:13:22.519Z,80
2017-01-28T08:14:44.579Z,80
2017-01-28T08:16:06.652Z,85
2017-01-28T08:17:27.972Z,85
2017-01-28T08:18:50.754Z,90
2017-01-28T08:20:13.209Z,95
2017-01-28T08:21:35.312Z,95
2017-01-28T08:22:58.192Z,100
2017-01-28T08:24:20.552Z,105
2017-01-28T08:25:42.722Z,110
2017-01-28T08:27:05.262Z,115
2017-01-28T08:28:27.356Z,115
2017-01-28T08:29:48.861Z,110
2017-01-28T08:31:10.962Z,110
2017-01-28T08:32:33.837Z,105
2017-01-28T08:33:56.305Z,105
2017-01-28T08:35:18.308Z,105
2017-01-28T08:36:40.430Z,105
2017-01-28T08:38:02.497Z,105
2017-01-28T08:39:24.563Z,105
2017-01-28T08:40:46.491Z,105
2017-01-28T08:42:07.837Z,110
2017-01-28T08:43:30.711Z,110
2017-01-28T08:44:52.783Z,110
2017-01-28T08:46:15.391Z,115
2017-01-28T08:47:37.619Z,110
2017-01-28T08:49:00.501Z,110
2017-01-28T08:50:22.213Z,110
2017-01-28T08:51:45.311Z,110
2017-01-28T08:53:08.175Z,110
2017-01-28T08:54:30.301Z,115
2017-01-28T08:55:53.169Z,115
2017-01-28T08:57:16.065Z,120
2017-01-28T08:58:38.917Z,120
2017-01-28T09:00:00.592Z,125
2017-01-28T09:01:21.903Z,125
2017-01-28T09:02:43.832Z,125
2017-01-28T09:04:05.897Z,125
2017-01-28T09:05:27.634Z,130
2017-01-28T09:06:50.137Z,130
2017-01-28T09:08:12.680Z,130
2017-01-28T09:09:34.357Z,130
2017-01-28T09:10:56.829Z,125
2017-01-28T09:12:19.331Z,125
2017-01-28T09:13:41.733Z,120
2017-01-28T09:15:03.804Z,120
2017-01-28T09:16:26.395Z,120
2017-01-28T09:17:48.894Z,120
2017-01-28T09:19:12.022Z,120
2017-01-28T09:22:27.222Z,115
2017-01-28T09:23:48.915Z,120
2017-01-28T09:25:12.175Z,115
2017-01-28T09:26:33.908Z,115
2017-01-28T09:27:55.991Z,115
2017-01-28T09:29:18.137Z,115
2017-01-28T09:30:40.520Z,115
2017-01-28T09:32:02.670Z,115
2017-01-28T09:33:24.752Z,115
2017-01-28T09:34:47.384Z,115
2017-01-28T09:36:09.816Z,115
2017-01-28T09:37:31.891Z,115
2017-01-28T09:38:53.981Z,115
2017-01-28T09:40:16.467Z,115
2017-01-28T09:41:39.274Z,110
2017-01-28T09:43:02.275Z,110
2017-01-28T09:44:25.134Z,115
2017-01-28T09:45:46.944Z,115
2017-01-28T09:47:09.974Z,120
2017-01-28T09:48:32.103Z,120
2017-01-28T09:49:55.114Z,125
2017-01-28T09:51:17.264Z,125
2017-01-28T09:52:39.974Z,125
2017-01-28T09:54:02.033Z,130
2017-01-28T09:55:24.496Z,125
2017-01-28T09:56:46.652Z,130
2017-01-28T09:58:09.386Z,130
2017-01-28T09:59:32.250Z,130
2017-01-28T10:00:53.923Z,130
2017-01-28T10:02:16.044Z,130
2017-01-28T10:03:37.565Z,135
2017-01-28T10:04:59.654Z,130
2017-01-28T10:06:22.143Z,130
2017-01-28T10:07:44.214Z,125
2017-01-28T10:09:06.138Z,125
2017-01-28T10:10:28.277Z,125
2017-01-28T10:11:51.295Z,125
2017-01-28T10:13:12.962Z,125
2017-01-28T10:14:35.693Z,125
2017-01-28T10:15:57.761Z,125
2017-01-28T10:17:19.838Z,125
2017-01-28T10:18:42.430Z,125
2017-01-28T10:20:04.803Z,125
2017-01-28T10:21:27.272Z,125
2017-01-28T10:22:49.760Z,125
2017-01-28T10:24:11.865Z,125
2017-01-28T10:25:34.652Z,125
2017-01-28T10:26:56.734Z,125
2017-01-28T10:28:19.213Z,125
2017-01-28T10:29:41.301Z,125
2017-01-28T10:31:04.551Z,130
2017-01-28T10:32:26.656Z,130
2017-01-28T10:33:48.831Z,130
2017-01-28T10:35:10.892Z,130
2017-01-28T10:36:33.745Z,130
2017-01-28T10:37:56.631Z,130
2017-01-28T10:39:19.491Z,125
2017-01-28T10:40:40.767Z,125
2017-01-28T10:42:02.691Z,125
2017-01-28T10:43:25.216Z,125
2017-01-28T10:44:47.692Z,130
2017-01-28T10:46:10.248Z,130
2017-01-28T10:47:32.637Z,130
2017-01-28T10:48:54.768Z,130
2017-01-28T10:50:17.228Z,130
2017-01-28T10:51:38.979Z,135
2017-01-28T10:53:00.980Z,140
2017-01-28T10:54:22.710Z,140
2017-01-28T10:55:45.678Z,145
2017-01-28T10:57:08.162Z,155
2017-01-28T10:58:30.539Z,160
2017-01-28T10:59:53.543Z,160
2017-01-28T11:01:15.701Z,155
2017-01-28T11:02:37.777Z,150
2017-01-28T11:04:00.095Z,150
2017-01-28T11:05:21.803Z,145
2017-01-28T11:06:44.296Z,150
2017-01-28T11:08:07.168Z,150
2017-01-28T11:09:30.200Z,150
2017-01-28T11:10:52.686Z,150
2017-01-28T11:12:15.165Z,150
2017-01-28T11:13:37.273Z,145
2017-01-28T11:15:00.397Z,145
2017-01-28T11:16:22.858Z,145
2017-01-28T11:17:45.348Z,145
2017-01-28T11:19:07.834Z,145
2017-01-28T11:20:30.208Z,145
2017-01-28T11:21:52.727Z,140
2017-01-28T11:23:14.456Z,140
2017-01-28T11:24:37.060Z,140
2017-01-28T11:25:59.419Z,140
2017-01-28T11:27:22.396Z,140
2017-01-28T11:28:45.419Z,140
2017-01-28T11:30:08.016Z,140
2017-01-28T11:31:30.811Z,140
2017-01-28T11:32:53.264Z,140
2017-01-28T11:34:15.412Z,140
2017-01-28T11:35:37.105Z,140
2017-01-28T11:36:58.730Z,140
2017-01-28T11:38:20.829Z,140
2017-01-28T11:39:43.305Z,140
2017-01-28T11:41:05.876Z,140
2017-01-28T11:42:27.503Z,140
2017-01-28T11:43:50.092Z,140
2017-01-28T11:45:12.600Z,140
2017-01-28T11:46:35.514Z,140
2017-01-28T11:47:57.589Z,140
2017-01-28T11:49:20.035Z,140
2017-01-28T11:50:42.174Z,140
2017-01-28T11:52:03.854Z,140
2017-01-28T11:53:26.972Z,145
2017-01-28T11:54:50.106Z,140
2017-01-28T11:56:12.613Z,140
2017-01-28T11:57:35.497Z,140
2017-01-28T11:58:57.822Z,140
2017-01-28T12:00:20.303Z,140
2017-01-28T12:01:42.362Z,140
2017-01-28T12:03:04.470Z,140
2017-01-28T12:04:26.853Z,135
2017-01-28T12:05:49.343Z,135
2017-01-28T12:07:11.871Z,135
2017-01-28T12:08:34.451Z,135
2017-01-28T12:09:57.559Z,135
2017-01-28T12:11:20.048Z,135
2017-01-28T12:12:42.153Z,135
2017-01-28T12:14:04.308Z,135
2017-01-28T12:15:27.096Z,135
2017-01-28T12:16:49.179Z,135
2017-01-28T12:18:11.669Z,135
2017-01-28T12:19:34.145Z,135
2017-01-28T12:20:56.483Z,140
2017-01-28T12:22:18.130Z,135
2017-01-28T12:23:40.982Z,135
2017-01-28T12:25:02.281Z,140
2017-01-28T12:26:24.219Z,140
2017-01-28T12:27:47.093Z,135
2017-01-28T12:29:09.616Z,135
2017-01-28T12:30:32.105Z,135
2017-01-28T12:31:54.573Z,135
2017-01-28T12:33:17.066Z,135
2017-01-28T12:34:39.936Z,135
2017-01-28T12:36:02.806Z,135
2017-01-28T12:37:24.757Z,135
2017-01-28T12:38:46.842Z,130
2017-01-28T12:40:09.721Z,130
2017-01-28T12:41:31.792Z,130
2017-01-28T12:42:53.728Z,130
2017-01-28T12:44:16.305Z,130
2017-01-28T12:45:38.852Z,130
2017-01-28T12:47:01.774Z,130
2017-01-28T12:48:24.964Z,130
2017-01-28T12:49:47.259Z,130
2017-01-28T12:51:09.434Z,125
2017-01-28T12:52:31.934Z,125
2017-01-28T12:53:54.298Z,125
2017-01-28T12:55:16.792Z,125
2017-01-28T12:56:38.466Z,125
2017-01-28T12:58:00.932Z,125
2017-01-28T12:59:23.703Z,125
2017-01-28T13:00:45.807Z,125
2017-01-28T13:02:08.017Z,125
2017-01-28T13:03:30.475Z,120
2017-01-28T13:04:52.908Z,120
2017-01-28T13:06:15.585Z,120
2017-01-28T13:07:38.434Z,125
2017-01-28T13:09:00.963Z,120
2017-01-28T13:10:23.725Z,120
2017-01-28T13:11:46.225Z,120
2017-01-28T13:13:09.007Z,120
2017-01-28T13:14:31.656Z,120
2017-01-28T13:15:54.825Z,120
2017-01-28T13:17:17.335Z,115
2017-01-28T13:18:40.237Z,115
2017-01-28T13:20:02.736Z,115
2017-01-28T13:21:25.900Z,115
2017-01-28T13:22:48.367Z,110
2017-01-28T13:24:11.001Z,110
2017-01-28T13:25:33.648Z,110
2017-01-28T13:26:56.048Z,110
2017-01-28T13:28:18.520Z,115
2017-01-28T13:29:41.431Z,110
2017-01-28T13:31:03.518Z,110
2017-01-28T13:32:26.322Z,110
2017-01-28T13:33:47.981Z,110
2017-01-28T13:35:10.044Z,115
2017-01-28T13:36:32.113Z,110
2017-01-28T13:37:54.835Z,110
2017-01-28T13:39:17.390Z,110
2017-01-28T13:40:40.310Z,110
2017-01-28T13:42:01.592Z,110
2017-01-28T13:43:25.043Z,110
2017-01-28T13:44:46.792Z,110
2017-01-28T13:46:09.421Z,110
2017-01-28T13:47:32.381Z,110
2017-01-28T13:48:55.108Z,115
2017-01-28T13:50:17.213Z,115
2017-01-28T13:51:39.681Z,115
2017-01-28T13:53:01.777Z,115
2017-01-28T13:54:24.157Z,115
2017-01-28T13:55:47.037Z,115
2017-01-28T13:57:09.774Z,115
2017-01-28T13:58:32.286Z,115
2017-01-28T13:59:54.613Z,110
2017-01-28T14:01:17.161Z,110
2017-01-28T14:02:39.220Z,110
2017-01-28T14:04:01.300Z,105
2017-01-28T14:05:24.120Z,105
2017-01-28T14:06:46.609Z,105
2017-01-28T14:08:07.481Z,105
2017-01-28T14:09:29.576Z,105
2017-01-28T14:10:51.560Z,105
2017-01-28T14:12:14.228Z,105
2017-01-28T14:13:37.144Z,105
2017-01-28T14:14:59.642Z,105
2017-01-28T14:16:22.421Z,105
2017-01-28T14:17:44.571Z,105
2017-01-28T14:19:06.656Z,100
2017-01-28T14:20:29.743Z,100
2017-01-28T14:21:52.991Z,100
2017-01-28T14:23:15.889Z,100
2017-01-28T14:24:37.556Z,100
2017-01-28T14:26:00.063Z,95
2017-01-28T14:27:22.875Z,95
2017-01-28T14:28:45.362Z,95
2017-01-28T14:30:07.138Z,95
2017-01-28T14:31:29.307Z,95
2017-01-28T14:32:51.274Z,90
2017-01-28T14:34:13.749Z,90
2017-01-28T14:35:36.228Z,90
2017-01-28T14:36:57.890Z,90
2017-01-28T14:38:21.170Z,90
2017-01-28T14:39:44.029Z,90
2017-01-28T14:41:07.098Z,90
2017-01-28T14:42:28.796Z,85
2017-01-28T14:43:51.569Z,85
2017-01-28T14:45:12.849Z,85
2017-01-28T14:46:34.527Z,85
2017-01-28T14:47:57.007Z,85
2017-01-28T14:49:19.844Z,85
2017-01-28T14:50:42.738Z,85
2017-01-28T14:52:04.446Z,85
2017-01-28T14:53:26.625Z,80
2017-01-28T14:54:48.988Z,80
2017-01-28T14:56:11.525Z,80
2017-01-28T14:57:33.196Z,75
2017-01-28T14:58:55.278Z,75
2017-01-28T15:00:18.017Z,75
2017-01-28T15:01:40.108Z,75
2017-01-28T15:03:03.080Z,70
2017-01-28T15:04:25.195Z,65
2017-01-28T15:05:47.970Z,65
2017-01-28T15:07:10.470Z,60
2017-01-28T15:08:32.122Z,60
2017-01-28T15:09:54.587Z,60
2017-01-28T15:11:17.184Z,60
2017-01-28T15:12:39.679Z,60
2017-01-28T15:14:02.169Z,55
2017-01-28T15:15:24.659Z,55
2017-01-28T15:16:47.033Z,55
2017-01-28T15:18:09.854Z,55
2017-01-28T15:19:32.154Z,55
2017-01-28T15:20:54.221Z,50
2017-01-28T15:22:16.631Z,50
2017-01-28T15:23:39.742Z,50
2017-01-28T15:25:02.257Z,50
2017-01-28T15:26:24.909Z,45
2017-01-28T15:27:47.854Z,45
2017-01-28T15:29:10.755Z,40
2017-01-28T15:30:32.134Z,40
2017-01-28T15:31:54.545Z,40
2017-01-28T15:33:17.427Z,35
2017-01-28T15:34:39.947Z,35
2017-01-28T15:36:01.717Z,35
2017-01-28T15:37:23.936Z,30
2017-01-28T15:38:46.339Z,30
2017-01-28T15:40:08.414Z,30
2017-01-28T15:41:30.897Z,25
2017-01-28T15:42:53.465Z,25
2017-01-28T15:44:16.703Z,25
2017-01-28T15:45:39.624Z,20
2017-01-28T15:47:02.548Z,20
2017-01-28T15:48:24.645Z,15
2017-01-28T15:49:47.091Z,15
2017-01-28T15:51:09.608Z,15
2017-01-28T15:52:32.187Z,15
2017-01-28T15:53:54.364Z,15
2017-01-28T15:55:17.096Z,10
2017-01-28T15:56:40.268Z,10
2017-01-28T15:58:02.831Z,10
2017-01-28T15:59:25.325Z,10
2017-01-28T16:00:48.656Z,5
2017-01-28T16:02:11.376Z,5
2017-01-28T16:03:33.944Z,5
2017-01-28T16:04:56.057Z,5
2017-01-28T16:06:18.137Z,5
2017-01-28T16:07:40.263Z,0
2017-01-28T16:09:03.000Z,0
2017-01-28T16:10:25.507Z,0
2017-01-28T16:11:47.937Z,0
2017-01-28T16:13:10.932Z,0
2017-01-28T16:14:33.531Z,0
2017-01-28T16:15:56.043Z,0
2017-01-28T16:17:17.272Z,0
2017-01-28T16:18:39.792Z,0
2017-01-28T16:20:02.412Z,0
2017-01-28T16:21:24.913Z,0
2017-01-28T16:22:47.294Z,0
2017-01-28T16:24:10.239Z,0
2017-01-28T16:25:32.763Z,0
2017-01-28T16:26:54.938Z,0
2017-01-28T16:28:17.270Z,0
2017-01-28T16:29:38.563Z,0
2017-01-28T16:31:00.637Z,0
2017-01-28T16:32:22.746Z,0
2017-01-28T16:33:45.538Z,0
2017-01-28T16:35:07.713Z,0
2017-01-28T16:36:29.390Z,0
2017-01-28T16:37:52.361Z,0
2017-01-28T16:39:14.726Z,0
2017-01-28T16:40:37.222Z,0
2017-01-28T16:41:59.738Z,0
2017-01-28T16:43:21.849Z,0
2017-01-28T16:44:44.196Z,0
2017-01-28T16:46:06.750Z,0
2017-01-28T16:47:29.628Z,0
2017-01-28T16:48:52.195Z,0
2017-01-28T16:50:14.971Z,0
2017-01-28T16:51:37.950Z,0
2017-01-28T16:52:59.639Z,0
2017-01-28T16:54:22.602Z,0
2017-01-28T16:55:45.428Z,0
2017-01-28T16:57:07.900Z,0
2017-01-28T16:58:30.958Z,0
2017-01-28T16:59:53.449Z,0
2017-01-28T17:01:16.601Z,0
2017-01-28T17:02:39.092Z,0
2017-01-28T17:04:01.867Z,0
2017-01-28T17:05:24.552Z,0
2017-01-28T17:06:48.109Z,0
2017-01-28T17:08:10.187Z,0
2017-01-28T17:09:31.475Z,0
2017-01-28T17:10:53.568Z,0
2017-01-28T17:12:16.725Z,0
2017-01-28T17:13:38.823Z,0
2017-01-28T17:15:01.715Z,0
2017-01-28T17:16:24.823Z,0
2017-01-28T17:17:47.682Z,0
2017-01-28T17:19:10.617Z,0
2017-01-28T17:20:33.107Z,0
2017-01-28T17:21:54.773Z,0
2017-01-28T17:23:17.267Z,0
2017-01-28T17:24:40.346Z,0
2017-01-28T17:26:03.392Z,0
2017-01-28T17:27:26.292Z,0
2017-01-28T17:28:49.192Z,0
2017-01-28T17:30:12.103Z,0
2017-01-28T17:31:34.303Z,0
2017-01-28T17:32:56.610Z,0
2017-01-28T17:34:19.000Z,0
2017-01-28T17:35:41.122Z,0
2017-01-28T17:37:03.233Z,0
2017-01-28T17:38:25.323Z,0
2017-01-28T17:39:48.065Z,0
2017-01-28T17:41:10.286Z,0
2017-01-28T17:42:32.917Z,0
2017-01-28T17:43:55.866Z,0
2017-01-28T17:45:18.582Z,0
2017-01-28T17:46:40.687Z,0
2017-01-28T17:48:03.367Z,0
2017-01-28T17:49:25.462Z,0
2017-01-28T17:50:47.858Z,0
2017-01-28T17:52:10.368Z,0
2017-01-28T17:53:33.329Z,0
2017-01-28T17:54:55.875Z,0
2017-01-28T17:56:18.278Z,0
2017-01-28T17:57:41.190Z,0
2017-01-28T17:59:03.270Z,0
2017-01-28T18:00:24.948Z,0
2017-01-28T18:01:48.126Z,0
2017-01-28T18:03:10.290Z,0
2017-01-28T18:04:32.773Z,0
2017-01-28T18:05:55.253Z,0
2017-01-28T18:07:18.088Z,0
2017-01-28T18:08:40.641Z,0
2017-01-28T18:10:02.401Z,0
2017-01-28T18:11:25.249Z,0
2017-01-28T18:12:47.873Z,0
2017-01-28T18:14:09.951Z,0
2017-01-28T18:15:32.039Z,0
2017-01-28T18:16:55.296Z,0
2017-01-28T18:18:18.284Z,0
2017-01-28T18:19:40.377Z,0
2017-01-28T18:21:02.962Z,0
2017-01-28T18:22:25.421Z,0
2017-01-28T18:23:48.101Z,0
2017-01-28T18:25:11.000Z,0
2017-01-28T18:26:33.948Z,0
2017-01-28T18:27:57.141Z,0
2017-01-28T18:29:19.645Z,0
2017-01-28T18:30:42.187Z,0
2017-01-28T18:32:04.736Z,0
2017-01-28T18:33:27.952Z,0
2017-01-28T18:34:50.175Z,0
2017-01-28T18:36:13.081Z,0
2017-01-28T18:37:35.621Z,0
2017-01-28T18:38:58.059Z,0
2017-01-28T18:40:20.191Z,0
2017-01-28T18:41:42.283Z,0
2017-01-28T18:43:04.812Z,0
2017-01-28T18:44:27.264Z,0
2017-01-28T18:45:49.773Z,0
2017-01-28T18:47:12.351Z,0
2017-01-28T18:48:34.933Z,0
2017-01-28T18:49:57.673Z,0
2017-01-28T18:51:20.191Z,0
2017-01-28T18:52:43.089Z,0
2017-01-28T18:54:05.636Z,0
2017-01-28T18:55:28.482Z,0
2017-01-28T18:56:51.491Z,0
2017-01-28T18:58:13.700Z,0
2017-01-28T18:59:36.584Z,0
2017-01-28T19:00:59.306Z,0
2017-01-28T19:02:21.825Z,0
2017-01-28T19:03:44.714Z,0
2017-01-28T19:05:06.820Z,0
2017-01-28T19:06:29.939Z,0
2017-01-28T19:07:52.472Z,0
2017-01-28T19:09:14.607Z,0
2017-01-28T19:10:37.498Z,0
2017-01-28T19:12:00.292Z,0
2017-01-28T19:13:22.862Z,0
2017-01-28T19:14:45.393Z,0
2017-01-28T19:16:08.513Z,0
2017-01-28T19:17:30.927Z,0
2017-01-28T19:18:53.814Z,0
2017-01-28T19:20:16.384Z,0
2017-01-28T19:21:37.675Z,0
2017-01-28T19:23:00.851Z,0
2017-01-28T19:24:23.385Z,0
2017-01-28T19:25:45.926Z,0
2017-01-28T19:27:08.482Z,0
2017-01-28T19:28:30.997Z,0
2017-01-28T19:29:52.716Z,0
2017-01-28T19:31:15.294Z,0
2017-01-28T19:32:37.427Z,0
2017-01-28T19:34:00.532Z,0
2017-01-28T19:35:22.490Z,0
2017-01-28T19:36:45.000Z,0
2017-01-28T19:38:07.554Z,0
2017-01-28T19:39:30.303Z,0
2017-01-28T19:40:52.800Z,0
2017-01-28T19:42:15.294Z,0
2017-01-28T19:43:37.800Z,0
2017-01-28T19:45:00.960Z,0
2017-01-28T19:46:23.956Z,0
2017-01-28T19:47:46.476Z,0